Terminal Aerodrome Forecast
Issued by NWS Upton, NY

Home | Current Version | Previous Version | Text Only | Print | Product List | Glossary On
Versions: 1 2 3 4 5 6 7 8 9 10 11 12 13 14 15 16 17 18 19 20 21 22 23 24 25 26 27
000
FTUS41 KOKX 181130
TAFLGA
TAF
KLGA 181130Z 1812/1912 VRB04KT P6SM SKC
     FM181600 26012G20KT P6SM SKC
     FM181900 24015G23KT P6SM SCT080
     FM182200 27013G21KT P6SM SCT080
     FM190000 35013G21KT P6SM SKC
     FM190600 02008KT P6SM FEW250=

USA.gov is the U.S. government's official web portal to all federal, state and local government web resources and services.